Time;durP1;ratioP1;P1;durP2;ratioP2;P2;SDS_P1;SDS_P2;PMS_P1;PMS_P2;Temp;Humidity;BMP_temperature;BMP_pressure;BME280_temperature;BME280_humidity;BME280_pressure;Samples;Min_cycle;Max_cycle;Signal;HPM_P1;HPM_P2
2022/04/18 00:01:13;;;;;;;17.27;13.85;;;9.90;97.40;;;;;;5014433;28;20184;-78
2022/04/18 00:03:39;;;;;;;18.50;13.75;;;9.90;97.50;;;;;;5014368;28;20042;-75
2022/04/18 00:06:04;;;;;;;20.08;13.60;;;9.80;97.60;;;;;;4998100;28;20360;-78
2022/04/18 00:08:30;;;;;;;19.65;14.18;;;9.80;97.90;;;;;;5015098;28;20437;-77
2022/04/18 00:10:55;;;;;;;20.95;14.30;;;9.80;98.00;;;;;;5014790;28;20124;-79
2022/04/18 00:13:21;;;;;;;18.20;14.55;;;9.70;98.00;;;;;;5016008;28;20046;-78
2022/04/18 00:15:46;;;;;;;23.10;14.70;;;9.70;98.50;;;;;;5014007;28;20050;-76
2022/04/18 00:18:12;;;;;;;19.48;14.80;;;9.60;98.60;;;;;;5015044;28;20042;-80
2022/04/18 00:20:37;;;;;;;20.92;14.50;;;9.60;98.80;;;;;;5013949;28;20094;-78
2022/04/18 00:23:03;;;;;;;20.02;14.35;;;9.50;98.80;;;;;;5014106;28;20066;-76
2022/04/18 00:25:29;;;;;;;19.77;14.35;;;9.50;98.50;;;;;;4997805;28;20034;-75
2022/04/18 00:27:54;;;;;;;18.83;13.55;;;9.50;98.70;;;;;;5015677;28;20045;-76
2022/04/18 00:30:20;;;;;;;18.40;14.02;;;9.50;98.50;;;;;;5018704;28;20060;-78
2022/04/18 00:32:45;;;;;;;19.98;14.52;;;9.50;98.70;;;;;;5033458;28;20094;-80
2022/04/18 00:35:11;;;;;;;19.27;14.07;;;9.50;99.00;;;;;;5038230;28;20094;-77
2022/04/18 00:37:39;;;;;;;21.67;15.25;;;9.40;99.00;;;;;;5038638;28;20041;-79
2022/04/18 00:40:07;;;;;;;17.50;13.77;;;9.40;99.30;;;;;;5037828;28;20063;-80
2022/04/18 00:42:33;;;;;;;17.08;13.57;;;9.40;99.30;;;;;;5038830;28;20351;-76
2022/04/18 00:44:59;;;;;;;20.13;13.60;;;9.40;99.10;;;;;;5038285;28;20171;-78
2022/04/18 00:47:24;;;;;;;19.67;14.35;;;9.30;99.00;;;;;;5024281;28;20069;-77
2022/04/18 00:49:50;;;;;;;21.55;13.57;;;9.30;99.10;;;;;;5017813;28;20391;-77
2022/04/18 00:52:16;;;;;;;19.20;13.68;;;9.30;99.30;;;;;;5017715;28;20112;-78
2022/04/18 00:54:42;;;;;;;18.17;14.15;;;9.30;99.10;;;;;;5017277;28;20041;-77
2022/04/18 00:57:10;;;;;;;17.95;14.20;;;9.30;99.10;;;;;;5017786;28;20111;-77
2022/04/18 00:59:37;;;;;;;18.95;14.07;;;9.30;99.20;;;;;;5018382;28;20125;-78
2022/04/18 01:02:04;;;;;;;19.98;14.13;;;9.30;99.10;;;;;;5018271;28;20053;-78
2022/04/18 01:04:31;;;;;;;19.05;14.50;;;9.20;99.30;;;;;;5017294;28;20042;-76
2022/04/18 01:06:58;;;;;;;20.80;14.90;;;9.20;99.10;;;;;;5018360;28;20038;-75
2022/04/18 01:09:24;;;;;;;19.20;14.68;;;9.20;99.10;;;;;;5017804;28;20080;-79
2022/04/18 01:11:50;;;;;;;19.60;15.00;;;9.20;99.20;;;;;;5017972;28;20069;-76
2022/04/18 01:14:16;;;;;;;21.45;14.68;;;9.20;99.20;;;;;;5019829;28;20044;-74
2022/04/18 01:16:42;;;;;;;22.65;16.17;;;9.20;98.90;;;;;;5035698;28;20042;-76
2022/04/18 01:19:09;;;;;;;19.67;14.95;;;9.10;99.30;;;;;;5043622;28;20057;-77
2022/04/18 01:21:35;;;;;;;22.38;14.93;;;9.10;99.50;;;;;;5057772;28;20036;-79
2022/04/18 01:24:01;;;;;;;20.17;15.55;;;9.10;99.30;;;;;;5056774;28;20041;-77
2022/04/18 01:29:10;;;;;;;21.50;16.05;;;9.10;99.00;;;;;;5052883;28;20060;-75
2022/04/18 01:31:38;;;;;;;19.67;15.48;;;9.00;99.10;;;;;;5036650;28;20467;-75
2022/04/18 01:34:05;;;;;;;20.90;15.95;;;9.00;99.30;;;;;;5037651;28;20045;-78
2022/04/18 01:36:32;;;;;;;21.90;16.17;;;9.00;99.20;;;;;;5036433;28;20467;-77
2022/04/18 01:38:57;;;;;;;22.27;14.63;;;8.90;99.40;;;;;;5045999;28;20044;-78
2022/04/18 01:41:23;;;;;;;19.02;14.80;;;8.90;99.20;;;;;;5056298;28;20029;-78
2022/04/18 01:43:49;;;;;;;19.27;15.05;;;8.90;99.50;;;;;;5057071;28;20041;-78
2022/04/18 01:46:15;;;;;;;19.42;15.45;;;8.90;99.40;;;;;;5056225;28;20041;-77
2022/04/18 01:48:41;;;;;;;19.88;14.50;;;8.80;99.30;;;;;;5039658;28;20059;-76
2022/04/18 01:51:07;;;;;;;19.42;15.18;;;8.80;99.40;;;;;;5056653;28;20033;-78
2022/04/18 01:53:33;;;;;;;20.88;15.07;;;8.80;99.50;;;;;;5056577;28;20056;-77
2022/04/18 01:55:59;;;;;;;18.70;15.52;;;8.80;99.80;;;;;;5055954;28;20041;-78
2022/04/18 01:58:25;;;;;;;18.70;14.70;;;8.80;99.90;;;;;;5056305;28;20135;-77
2022/04/18 02:00:50;;;;;;;19.23;14.40;;;8.70;99.80;;;;;;5056123;28;20036;-78
2022/04/18 02:03:16;;;;;;;20.35;15.13;;;8.70;99.70;;;;;;5047245;28;20049;-78
2022/04/18 02:05:43;;;;;;;21.67;14.00;;;8.60;99.80;;;;;;5035478;28;20447;-79
2022/04/18 02:08:09;;;;;;;16.63;14.48;;;8.70;99.80;;;;;;5036915;28;20355;-77
2022/04/18 02:10:34;;;;;;;17.13;14.57;;;8.60;99.90;;;;;;5036679;28;20067;-77
2022/04/18 02:13:00;;;;;;;20.08;15.73;;;8.60;99.90;;;;;;5055764;28;20041;-78
2022/04/18 02:15:26;;;;;;;17.50;14.27;;;8.60;99.90;;;;;;5056214;28;20059;-78
2022/04/18 02:17:51;;;;;;;20.42;14.65;;;8.50;99.90;;;;;;5039195;28;20106;-75
2022/04/18 02:20:17;;;;;;;19.48;15.20;;;8.50;99.90;;;;;;5072530;28;20447;-75
2022/04/18 02:22:42;;;;;;;18.83;14.35;;;8.40;99.90;;;;;;5058848;28;20332;-77
2022/04/18 02:25:08;;;;;;;19.40;15.00;;;8.40;99.90;;;;;;5076431;28;20427;-76
2022/04/18 02:27:34;;;;;;;19.50;15.70;;;8.30;99.90;;;;;;5040461;28;20128;-78
2022/04/18 02:30:00;;;;;;;20.13;14.63;;;8.30;99.90;;;;;;5046333;28;20123;-80
2022/04/18 02:35:11;;;;;;;21.80;16.98;;;8.30;99.90;;;;;;5076363;28;20420;-75
2022/04/18 02:37:36;;;;;;;18.27;14.55;;;8.20;99.90;;;;;;5058554;28;20059;-77
2022/04/18 02:40:02;;;;;;;17.85;14.73;;;8.20;99.90;;;;;;5061143;28;20044;-75
2022/04/18 02:42:28;;;;;;;17.83;15.07;;;8.10;99.90;;;;;;5055987;28;20037;-77
2022/04/18 02:44:54;;;;;;;18.85;15.45;;;8.10;99.90;;;;;;5056078;28;20512;-75
2022/04/18 02:47:19;;;;;;;19.33;15.40;;;8.10;99.90;;;;;;5055902;28;20037;-77
2022/04/18 02:49:45;;;;;;;22.55;15.80;;;8.10;99.90;;;;;;5038287;28;20056;-78
2022/04/18 02:52:10;;;;;;;19.23;14.70;;;8.00;99.90;;;;;;5021906;28;20041;-77
2022/04/18 02:54:36;;;;;;;22.67;15.68;;;8.10;99.90;;;;;;5051273;28;20101;-80
2022/04/18 02:57:01;;;;;;;20.60;16.02;;;8.00;99.90;;;;;;5058182;28;20049;-77
2022/04/18 02:59:27;;;;;;;22.10;16.17;;;8.00;99.90;;;;;;5075872;28;20047;-77
2022/04/18 03:01:52;;;;;;;20.00;15.52;;;7.90;99.90;;;;;;5075458;28;20086;-75
2022/04/18 03:04:18;;;;;;;22.88;16.25;;;7.90;99.90;;;;;;5058233;28;20043;-79
2022/04/18 03:06:43;;;;;;;21.02;15.55;;;7.80;99.90;;;;;;5058467;28;20051;-79
2022/04/18 03:09:09;;;;;;;22.20;17.33;;;7.90;99.90;;;;;;5073956;28;20036;-76
2022/04/18 03:11:35;;;;;;;22.42;16.20;;;7.80;99.90;;;;;;5075451;28;20334;-77
2022/04/18 03:14:00;;;;;;;22.35;16.20;;;7.80;99.90;;;;;;5058260;28;20061;-80
2022/04/18 03:16:26;;;;;;;21.25;16.67;;;7.80;99.90;;;;;;5057672;28;20109;-78
2022/04/18 03:18:51;;;;;;;19.80;16.30;;;7.80;99.90;;;;;;5074950;28;20052;-78
2022/04/18 03:21:17;;;;;;;21.98;16.55;;;7.80;99.90;;;;;;5075309;28;20045;-75
2022/04/18 03:23:45;;;;;;;21.25;16.33;;;7.80;99.90;;;;;;5047623;28;20045;-79
2022/04/18 03:26:11;;;;;;;22.80;17.02;;;7.80;99.90;;;;;;5055363;28;20084;-77
2022/04/18 03:28:37;;;;;;;22.23;17.10;;;7.70;99.90;;;;;;5038140;28;20045;-77
2022/04/18 03:31:03;;;;;;;22.75;16.95;;;7.70;99.90;;;;;;5021079;28;20045;-80
2022/04/18 03:33:28;;;;;;;21.95;16.58;;;7.70;99.90;;;;;;5055237;28;20052;-76
2022/04/18 03:41:22;;;;;;;24.23;17.88;;;7.60;99.90;;;;;;5055224;28;20435;-77
2022/04/18 03:43:50;;;;;;;24.20;17.88;;;7.50;99.90;;;;;;5037066;28;20040;-75
2022/04/18 03:46:15;;;;;;;22.13;16.90;;;7.60;99.90;;;;;;5037597;28;20055;-77
2022/04/18 03:48:41;;;;;;;23.52;17.98;;;7.50;99.90;;;;;;5037480;28;20435;-75
2022/04/18 03:51:06;;;;;;;24.52;18.63;;;7.50;99.90;;;;;;5044008;28;20442;-78
2022/04/18 03:53:32;;;;;;;23.42;17.80;;;7.50;99.90;;;;;;5057585;28;20037;-78
2022/04/18 03:55:57;;;;;;;24.17;16.90;;;7.50;99.90;;;;;;5074559;28;20119;-77
2022/04/18 03:58:23;;;;;;;26.08;18.42;;;7.40;99.90;;;;;;5074579;28;20032;-77
2022/04/18 04:00:48;;;;;;;25.60;17.63;;;7.40;99.90;;;;;;5056805;28;20041;-77
2022/04/18 04:03:14;;;;;;;25.52;17.17;;;7.40;99.90;;;;;;5040998;28;20052;-77
2022/04/18 04:05:40;;;;;;;23.25;17.85;;;7.40;99.90;;;;;;5074669;28;20202;-80
2022/04/18 04:08:06;;;;;;;20.48;17.35;;;7.30;99.90;;;;;;5074419;28;20114;-76
2022/04/18 04:10:32;;;;;;;22.40;17.50;;;7.30;99.90;;;;;;5074965;28;20041;-76
2022/04/18 04:12:58;;;;;;;24.58;18.50;;;7.30;99.90;;;;;;5056598;28;20489;-75
2022/04/18 04:15:24;;;;;;;23.40;18.63;;;7.30;99.90;;;;;;5074491;28;20074;-79
2022/04/18 04:17:49;;;;;;;24.45;17.23;;;7.30;99.90;;;;;;5074970;28;20048;-77
2022/04/18 04:20:15;;;;;;;26.38;18.75;;;7.30;99.90;;;;;;5066124;28;20053;-76
2022/04/18 04:22:45;;;;;;;25.25;17.63;;;7.30;99.90;;;;;;5054893;28;20072;-75
2022/04/18 04:25:10;;;;;;;25.05;18.13;;;7.30;99.90;;;;;;5054847;28;20059;-80
2022/04/18 04:27:36;;;;;;;24.63;18.33;;;7.30;99.90;;;;;;5054719;28;20049;-78
2022/04/18 04:30:01;;;;;;;24.85;19.15;;;7.30;99.90;;;;;;5020779;28;20136;-77
2022/04/18 04:32:27;;;;;;;22.58;18.42;;;7.30;99.90;;;;;;5054407;28;20044;-77
2022/04/18 04:34:53;;;;;;;25.20;18.55;;;7.30;99.90;;;;;;5061783;28;20036;-77
2022/04/18 04:37:18;;;;;;;22.52;17.83;;;7.30;99.90;;;;;;5074531;28;20052;-79
2022/04/18 04:39:44;;;;;;;24.95;19.17;;;7.30;99.90;;;;;;5074516;28;20051;-82
2022/04/18 04:42:10;;;;;;;23.38;18.27;;;7.30;99.90;;;;;;5040224;28;20060;-76
2022/04/18 04:44:36;;;;;;;25.85;20.05;;;7.30;99.90;;;;;;5074365;28;20048;-80
2022/04/18 04:47:01;;;;;;;26.92;18.85;;;7.30;99.90;;;;;;5074529;28;20044;-76
2022/04/18 04:49:27;;;;;;;24.08;19.13;;;7.30;99.90;;;;;;5033957;28;20045;-77
2022/04/18 04:51:53;;;;;;;26.88;18.90;;;7.20;99.90;;;;;;5054290;28;20358;-76
2022/04/18 04:54:18;;;;;;;26.13;19.15;;;7.30;99.90;;;;;;5036925;28;20041;-80
2022/04/18 04:56:44;;;;;;;24.40;18.98;;;7.20;99.90;;;;;;5036543;28;20041;-77
2022/04/18 04:59:09;;;;;;;26.08;19.67;;;7.20;99.90;;;;;;5036684;28;20053;-74
2022/04/18 05:01:35;;;;;;;25.15;19.50;;;7.30;99.90;;;;;;5066587;28;20094;-80
2022/04/18 05:04:01;;;;;;;28.70;19.90;;;7.20;99.90;;;;;;5065776;28;20033;-73
2022/04/18 05:06:26;;;;;;;24.65;19.27;;;7.30;99.90;;;;;;5054276;28;20040;-76
2022/04/18 05:08:52;;;;;;;26.13;20.10;;;7.30;99.90;;;;;;5036979;28;20422;-76
2022/04/18 05:11:17;;;;;;;26.23;20.05;;;7.20;99.90;;;;;;5053861;28;20037;-77
2022/04/18 05:13:43;;;;;;;25.23;18.55;;;7.30;99.90;;;;;;5055539;28;20041;-76
2022/04/18 05:16:09;;;;;;;25.73;18.40;;;7.30;99.90;;;;;;5057747;28;20036;-77
2022/04/18 05:18:34;;;;;;;23.85;19.48;;;7.30;99.90;;;;;;5057600;28;20442;-79
2022/04/18 05:21:00;;;;;;;24.20;19.10;;;7.30;99.90;;;;;;5057664;28;20134;-76
2022/04/18 05:23:25;;;;;;;26.80;19.02;;;7.30;99.90;;;;;;5023979;28;20194;-76
2022/04/18 05:25:51;;;;;;;26.23;19.67;;;7.30;99.90;;;;;;5040166;28;20041;-79
2022/04/18 05:28:16;;;;;;;24.98;19.00;;;7.30;99.90;;;;;;5040115;28;20355;-77
2022/04/18 05:30:42;;;;;;;28.25;20.95;;;7.30;99.90;;;;;;5057315;28;20041;-77
2022/04/18 05:33:08;;;;;;;25.52;20.17;;;7.30;99.90;;;;;;5062874;28;20343;-75
2022/04/18 05:35:33;;;;;;;25.38;18.63;;;7.40;99.90;;;;;;5039852;28;20388;-76
2022/04/18 05:37:59;;;;;;;27.33;19.00;;;7.40;99.90;;;;;;5057434;28;20040;-76
2022/04/18 05:40:24;;;;;;;26.75;20.17;;;7.40;99.90;;;;;;5039882;28;20052;-74
2022/04/18 05:42:51;;;;;;;25.50;19.45;;;7.50;99.90;;;;;;5057110;28;20036;-81
2022/04/18 05:45:17;;;;;;;26.45;19.30;;;7.50;99.90;;;;;;5057167;28;20044;-76
2022/04/18 05:47:42;;;;;;;23.88;18.65;;;7.60;99.90;;;;;;5040699;28;20036;-78
2022/04/18 05:50:08;;;;;;;28.45;19.83;;;7.60;99.90;;;;;;5057021;28;20102;-78
2022/04/18 05:52:34;;;;;;;27.02;19.25;;;7.60;99.90;;;;;;5039602;28;20048;-77
2022/04/18 05:55:00;;;;;;;26.42;20.23;;;7.70;99.90;;;;;;5039706;28;20052;-77
2022/04/18 05:57:25;;;;;;;27.13;20.00;;;7.70;99.90;;;;;;5056934;28;20037;-74
2022/04/18 05:59:51;;;;;;;30.52;19.73;;;7.80;99.90;;;;;;5039663;28;20102;-79
2022/04/18 06:02:17;;;;;;;25.52;19.13;;;7.90;99.90;;;;;;5062868;28;20359;-76
2022/04/18 06:04:42;;;;;;;29.23;19.73;;;7.90;99.90;;;;;;5059266;28;20047;-77
2022/04/18 06:07:08;;;;;;;27.05;19.88;;;8.00;99.90;;;;;;5076435;28;20036;-77
2022/04/18 06:09:34;;;;;;;24.70;18.15;;;8.00;99.90;;;;;;5058970;28;20041;-75
2022/04/18 06:11:59;;;;;;;24.10;18.67;;;8.10;99.90;;;;;;5058836;28;20048;-74
2022/04/18 06:14:25;;;;;;;24.25;18.13;;;8.10;99.90;;;;;;5074815;28;20418;-76
2022/04/18 06:16:50;;;;;;;25.15;17.63;;;8.10;99.90;;;;;;5056727;28;20106;-77
2022/04/18 06:19:16;;;;;;;28.10;18.85;;;8.20;99.90;;;;;;5056486;28;20061;-77
2022/04/18 06:21:42;;;;;;;23.85;17.73;;;8.20;99.90;;;;;;5056361;28;20327;-76
2022/04/18 06:24:07;;;;;;;24.85;18.73;;;8.30;99.90;;;;;;5038279;28;20454;-75
2022/04/18 06:26:33;;;;;;;23.55;17.95;;;8.30;99.90;;;;;;5070631;28;20319;-77
2022/04/18 06:28:59;;;;;;;24.83;18.80;;;8.40;99.90;;;;;;5057923;28;20047;-78
2022/04/18 06:31:24;;;;;;;24.30;19.33;;;8.50;99.90;;;;;;5058515;28;20036;-77
2022/04/18 06:33:50;;;;;;;22.67;18.35;;;8.50;99.90;;;;;;5076177;28;20044;-78
2022/04/18 06:36:16;;;;;;;23.90;18.67;;;8.60;99.90;;;;;;5075392;28;20037;-74
2022/04/18 06:38:41;;;;;;;24.25;17.92;;;8.70;99.90;;;;;;5076355;28;20036;-74
2022/04/18 06:41:09;;;;;;;24.75;18.60;;;8.80;99.90;;;;;;5073091;28;20106;-74
2022/04/18 06:43:35;;;;;;;23.75;17.92;;;8.80;99.90;;;;;;5061547;28;20051;-76
2022/04/18 06:46:00;;;;;;;24.02;18.10;;;8.90;99.90;;;;;;5065666;28;20032;-72
2022/04/18 06:48:26;;;;;;;22.75;17.38;;;9.00;99.90;;;;;;5065651;28;20045;-70
2022/04/18 06:50:51;;;;;;;24.30;17.70;;;9.10;99.90;;;;;;5055150;28;20102;-80
2022/04/18 06:53:17;;;;;;;22.85;18.58;;;9.20;99.90;;;;;;5076002;28;20040;-78
2022/04/18 06:58:27;;;;;;;22.85;17.85;;;9.40;99.90;;;;;;5075927;28;20080;-77
2022/04/18 07:00:53;;;;;;;24.73;17.83;;;9.50;99.90;;;;;;5040530;28;20079;-76
2022/04/18 07:03:18;;;;;;;23.85;18.17;;;9.60;99.90;;;;;;5058097;28;20051;-77
2022/04/18 07:05:44;;;;;;;24.65;18.67;;;9.70;99.90;;;;;;5057279;28;20044;-78
2022/04/18 07:08:10;;;;;;;21.10;17.45;;;9.80;99.90;;;;;;5037755;28;20494;-77
2022/04/18 07:10:35;;;;;;;24.73;18.20;;;9.90;99.90;;;;;;5055684;28;20039;-75
2022/04/18 07:13:01;;;;;;;24.02;17.48;;;10.00;99.90;;;;;;5055515;28;20111;-78
2022/04/18 07:15:27;;;;;;;23.45;18.05;;;10.10;99.90;;;;;;5052353;28;20036;-78
2022/04/18 07:17:52;;;;;;;22.85;17.17;;;10.10;99.90;;;;;;5039096;28;20420;-77
2022/04/18 07:20:18;;;;;;;23.58;17.35;;;10.20;99.90;;;;;;5055480;28;20597;-75
2022/04/18 07:22:43;;;;;;;22.00;17.02;;;10.20;99.90;;;;;;5037523;28;20068;-75
2022/04/18 07:25:09;;;;;;;25.42;17.85;;;10.30;99.90;;;;;;5055122;28;20041;-79
2022/04/18 07:27:36;;;;;;;24.05;17.65;;;10.40;99.90;;;;;;5055390;28;20045;-77
2022/04/18 07:30:02;;;;;;;24.15;18.10;;;10.50;99.90;;;;;;5055084;28;20036;-75
2022/04/18 07:32:28;;;;;;;24.63;16.27;;;10.60;99.90;;;;;;5069390;28;20442;-75
2022/04/18 07:34:54;;;;;;;22.13;17.85;;;10.70;99.90;;;;;;5074882;28;20039;-77
2022/04/18 07:37:20;;;;;;;24.13;18.58;;;10.80;99.90;;;;;;5074702;28;20464;-76
2022/04/18 07:39:45;;;;;;;20.90;16.27;;;10.80;99.90;;;;;;5075075;28;20036;-75
2022/04/18 07:42:11;;;;;;;21.60;16.52;;;10.90;99.90;;;;;;5075152;28;20033;-77
2022/04/18 07:44:37;;;;;;;23.83;16.83;;;11.00;99.90;;;;;;5074942;28;20047;-76
2022/04/18 07:47:04;;;;;;;21.02;16.38;;;11.10;99.90;;;;;;5039810;28;20049;-77
2022/04/18 07:49:29;;;;;;;24.70;16.92;;;11.20;99.90;;;;;;5037288;28;20048;-76
2022/04/18 07:51:55;;;;;;;21.67;16.33;;;11.30;99.90;;;;;;5054939;28;20037;-75
2022/04/18 07:54:22;;;;;;;21.85;16.40;;;11.30;99.90;;;;;;5054585;28;20033;-75
2022/04/18 07:56:48;;;;;;;22.77;16.70;;;11.40;99.90;;;;;;5054779;28;20055;-75
2022/04/18 07:59:13;;;;;;;23.40;15.93;;;11.50;99.90;;;;;;5054921;28;20045;-76
2022/04/18 08:01:39;;;;;;;20.25;15.50;;;11.60;99.90;;;;;;5070875;28;20379;-76
2022/04/18 08:04:08;;;;;;;19.70;15.70;;;11.60;99.90;;;;;;5074871;28;20094;-76
2022/04/18 08:09:47;;;;;;;19.75;15.98;;;11.80;99.90;;;;;;4988289;28;20464;-79
2022/04/18 08:16:03;;;;;;;19.55;15.02;;;11.90;99.90;;;;;;4980441;28;20039;-78
2022/04/18 08:18:28;;;;;;;20.20;14.32;;;12.00;99.90;;;;;;4973840;28;20369;-75
2022/04/18 08:20:54;;;;;;;19.60;15.32;;;12.10;99.90;;;;;;4974066;28;20070;-77
2022/04/18 08:23:20;;;;;;;17.52;14.75;;;12.10;99.90;;;;;;4977621;28;20100;-75
2022/04/18 08:25:45;;;;;;;16.85;14.55;;;12.20;99.90;;;;;;5002416;28;20113;-78
2022/04/18 08:28:11;;;;;;;19.00;14.82;;;12.20;99.80;;;;;;5056644;28;20128;-75
2022/04/18 08:30:36;;;;;;;19.13;15.25;;;12.30;99.90;;;;;;5074629;28;20040;-77
2022/04/18 08:33:02;;;;;;;17.00;13.98;;;12.30;99.90;;;;;;5074426;28;20043;-77
2022/04/18 08:35:28;;;;;;;18.15;13.77;;;12.40;99.90;;;;;;5074383;28;20037;-77
2022/04/18 08:37:57;;;;;;;19.85;14.95;;;12.40;99.90;;;;;;5072256;28;20036;-76
2022/04/18 08:40:28;;;;;;;18.38;13.70;;;12.50;99.90;;;;;;5040320;28;20402;-76
2022/04/18 08:42:57;;;;;;;17.77;13.70;;;12.50;99.90;;;;;;5056928;28;20450;-77
2022/04/18 08:45:26;;;;;;;18.13;14.30;;;12.60;99.90;;;;;;5074486;28;20083;-76
2022/04/18 08:53:30;;;;;;;17.63;13.88;;;12.80;99.40;;;;;;5068794;28;20053;-76
2022/04/18 08:55:58;;;;;;;16.77;13.40;;;12.90;99.60;;;;;;5058211;28;20037;-76
2022/04/18 08:58:26;;;;;;;17.50;12.77;;;13.00;99.60;;;;;;5040176;28;20116;-77
2022/04/18 09:00:53;;;;;;;17.35;12.63;;;13.10;99.20;;;;;;5040288;28;20359;-76
2022/04/18 09:03:18;;;;;;;16.02;13.90;;;13.10;98.80;;;;;;5040625;28;20033;-76
2022/04/18 09:05:44;;;;;;;14.35;11.95;;;13.20;98.80;;;;;;5024746;28;20455;-76
2022/04/18 09:08:51;;;;;;;15.00;10.70;;;13.30;98.90;;;;;;5040315;28;20351;-76
2022/04/18 09:11:26;;;;;;;14.65;11.30;;;13.40;97.60;;;;;;5011616;28;20041;-76
2022/04/18 09:14:15;;;;;;;13.23;11.02;;;13.40;97.60;;;;;;5072832;28;20040;-77
2022/04/18 09:16:42;;;;;;;15.15;11.02;;;13.50;97.00;;;;;;5077506;28;20032;-76
2022/04/18 09:19:13;;;;;;;15.25;11.05;;;13.60;96.50;;;;;;5059818;28;20056;-76
2022/04/18 09:21:44;;;;;;;13.15;10.70;;;13.70;97.00;;;;;;5077537;28;20032;-76
2022/04/18 09:24:32;;;;;;;13.15;11.10;;;13.80;96.00;;;;;;5077506;28;20033;-75
2022/04/18 09:27:06;;;;;;;14.07;11.38;;;13.90;96.40;;;;;;5077293;28;20047;-76
2022/04/18 09:29:33;;;;;;;15.15;10.85;;;13.90;96.90;;;;;;5077397;28;20041;-77
2022/04/18 09:31:59;;;;;;;17.10;10.55;;;14.00;95.90;;;;;;5076761;28;20506;-76
2022/04/18 09:34:26;;;;;;;13.60;10.77;;;14.00;96.20;;;;;;5077056;28;20123;-76
2022/04/18 09:37:14;;;;;;;13.75;10.18;;;14.10;96.10;;;;;;5077337;28;20097;-76
2022/04/18 09:39:50;;;;;;;13.43;11.40;;;14.20;95.70;;;;;;5077400;28;20407;-75
2022/04/18 09:42:16;;;;;;;14.65;10.82;;;14.30;95.10;;;;;;5070512;28;20041;-75
2022/04/18 09:44:42;;;;;;;11.93;10.02;;;14.40;95.00;;;;;;5057081;28;20120;-77
2022/04/18 09:47:16;;;;;;;15.60;11.13;;;14.50;94.90;;;;;;5057012;28;20051;-77
2022/04/18 09:49:41;;;;;;;11.65;10.07;;;14.50;95.30;;;;;;5057204;28;20037;-77
2022/04/18 09:52:09;;;;;;;12.38;9.98;;;14.50;95.30;;;;;;5039428;28;20132;-78
2022/04/18 09:54:35;;;;;;;15.43;9.90;;;14.60;94.80;;;;;;5039848;28;20048;-77
2022/04/18 09:57:06;;;;;;;14.65;10.65;;;14.60;95.20;;;;;;5039095;28;20037;-78
2022/04/18 09:59:32;;;;;;;13.82;10.13;;;14.70;94.90;;;;;;5056460;28;20041;-77
2022/04/18 10:01:59;;;;;;;12.70;10.20;;;14.80;95.20;;;;;;5057332;28;20037;-76
2022/04/18 10:04:26;;;;;;;12.00;9.30;;;14.80;95.30;;;;;;5040329;28;20122;-77
2022/04/18 10:06:56;;;;;;;12.73;10.02;;;14.90;95.00;;;;;;5039595;28;20041;-77
2022/04/18 10:09:23;;;;;;;17.20;10.20;;;14.90;95.00;;;;;;5039495;28;20378;-78
2022/04/18 10:11:50;;;;;;;12.63;9.50;;;15.20;94.40;;;;;;5056488;28;20335;-78
2022/04/18 10:14:16;;;;;;;16.55;10.38;;;15.30;94.00;;;;;;5056669;28;20051;-76
2022/04/18 10:16:42;;;;;;;13.50;9.65;;;15.30;94.00;;;;;;5038668;28;20429;-75
2022/04/18 10:19:42;;;;;;;10.50;8.32;;;15.40;93.90;;;;;;5066223;28;20052;-77
2022/04/18 10:22:45;;;;;;;10.68;8.57;;;15.50;92.80;;;;;;5058255;28;20052;-76
2022/04/18 10:25:26;;;;;;;12.25;8.30;;;15.70;92.10;;;;;;5076264;28;20131;-77
2022/04/18 10:28:19;;;;;;;14.07;9.25;;;15.90;91.80;;;;;;5059034;28;20036;-77
2022/04/18 10:30:58;;;;;;;11.43;8.82;;;16.00;90.10;;;;;;5038457;28;20064;-76
2022/04/18 10:33:24;;;;;;;9.18;8.02;;;16.10;90.50;;;;;;5052568;28;20526;-76
2022/04/18 10:35:54;;;;;;;10.13;8.50;;;16.10;87.60;;;;;;5056055;28;20123;-76
2022/04/18 10:38:25;;;;;;;11.40;9.15;;;16.10;89.10;;;;;;5038824;28;20455;-77
2022/04/18 10:41:14;;;;;;;10.63;7.43;;;16.20;90.30;;;;;;5055808;28;20075;-76
2022/04/18 10:43:53;;;;;;;10.18;8.25;;;16.30;88.40;;;;;;5056052;28;20041;-77
2022/04/18 10:46:19;;;;;;;12.00;8.38;;;16.30;88.60;;;;;;5056033;28;20427;-75
2022/04/18 10:48:55;;;;;;;10.25;8.30;;;16.30;88.40;;;;;;5064078;28;20052;-77
2022/04/18 10:51:28;;;;;;;12.13;8.05;;;16.40;88.80;;;;;;5075524;28;20044;-77
2022/04/18 10:54:20;;;;;;;9.20;8.00;;;16.40;87.20;;;;;;5075906;28;20107;-78
2022/04/18 10:56:52;;;;;;;10.68;7.57;;;16.50;87.70;;;;;;5057900;28;20051;-78
2022/04/18 10:59:19;;;;;;;9.77;7.40;;;16.60;86.50;;;;;;5075551;28;20040;-81
2022/04/18 11:01:46;;;;;;;11.05;7.55;;;16.60;84.80;;;;;;5057804;28;20102;-78
2022/04/18 11:04:12;;;;;;;9.65;8.30;;;16.60;86.00;;;;;;5058005;28;20054;-78
2022/04/18 11:06:38;;;;;;;11.35;8.10;;;16.70;87.30;;;;;;5058366;28;20350;-78
2022/04/18 11:09:09;;;;;;;9.23;7.10;;;16.80;85.50;;;;;;5074633;28;20044;-80
2022/04/18 11:11:35;;;;;;;7.90;6.65;;;16.90;83.80;;;;;;5057138;28;20119;-76
2022/04/18 11:14:02;;;;;;;9.27;6.22;;;16.90;83.10;;;;;;5075301;28;20029;-77
2022/04/18 11:16:28;;;;;;;8.15;6.57;;;17.00;80.30;;;;;;5075391;28;20032;-77
2022/04/18 11:19:07;;;;;;;11.70;6.18;;;16.90;83.50;;;;;;5058583;28;20136;-78
2022/04/18 11:21:57;;;;;;;8.88;6.90;;;17.20;80.40;;;;;;5069164;28;20320;-75
2022/04/18 11:24:48;;;;;;;9.45;8.07;;;17.30;81.30;;;;;;5055520;28;20076;-77
2022/04/18 11:27:16;;;;;;;7.55;6.43;;;17.20;83.70;;;;;;5038446;28;20040;-76
2022/04/18 11:29:43;;;;;;;8.73;6.40;;;17.20;82.30;;;;;;5037950;28;20042;-77
2022/04/18 11:32:14;;;;;;;11.18;7.70;;;17.30;82.60;;;;;;5054678;28;20336;-75
2022/04/18 11:34:43;;;;;;;9.73;6.60;;;17.30;83.80;;;;;;5055376;28;20119;-77
2022/04/18 11:37:10;;;;;;;8.15;6.15;;;17.40;82.40;;;;;;5067075;28;20033;-75
2022/04/18 11:39:44;;;;;;;8.75;7.13;;;17.60;78.90;;;;;;5075081;28;20053;-79
2022/04/18 11:42:15;;;;;;;8.82;6.95;;;17.70;77.80;;;;;;5057823;28;20090;-75
2022/04/18 11:44:41;;;;;;;9.00;7.07;;;17.80;76.10;;;;;;5069002;28;20037;-76
2022/04/18 11:47:15;;;;;;;8.13;6.20;;;17.80;76.50;;;;;;5037683;28;20044;-76
2022/04/18 11:49:44;;;;;;;7.30;6.60;;;17.90;76.50;;;;;;5037139;28;20417;-75
2022/04/18 11:52:20;;;;;;;8.52;6.60;;;18.10;77.10;;;;;;5054816;28;20394;-76
2022/04/18 11:54:58;;;;;;;8.63;6.80;;;18.00;74.50;;;;;;5037259;28;20072;-78
2022/04/18 11:57:25;;;;;;;9.35;6.35;;;18.00;76.50;;;;;;5059021;28;20059;-77
2022/04/18 11:59:51;;;;;;;7.78;5.93;;;18.10;76.60;;;;;;5075032;28;20052;-75
2022/04/18 12:07:52;;;;;;;6.28;5.65;;;18.30;75.70;;;;;;5022995;28;20040;-78
2022/04/18 12:10:28;;;;;;;7.88;6.47;;;18.50;72.30;;;;;;5054599;28;20071;-76
2022/04/18 12:12:54;;;;;;;6.45;4.85;;;18.50;72.10;;;;;;5037723;28;20040;-76
2022/04/18 12:15:25;;;;;;;6.30;4.95;;;18.40;69.50;;;;;;5037473;28;20107;-77
2022/04/18 12:17:52;;;;;;;6.80;4.90;;;18.50;71.00;;;;;;5054812;28;20037;-76
2022/04/18 12:20:30;;;;;;;6.80;4.63;;;18.70;68.30;;;;;;5054719;28;20068;-78
2022/04/18 12:22:58;;;;;;;6.43;4.63;;;18.70;63.20;;;;;;5056687;28;20051;-77
2022/04/18 12:25:32;;;;;;;7.57;4.53;;;18.70;63.40;;;;;;5058609;28;20320;-77
2022/04/18 12:27:59;;;;;;;6.03;4.93;;;18.70;65.60;;;;;;5058821;28;20351;-77
2022/04/18 12:30:26;;;;;;;9.05;5.47;;;18.90;64.00;;;;;;5058732;28;20515;-77
2022/04/18 12:32:54;;;;;;;8.10;5.38;;;18.80;62.00;;;;;;5060312;28;20358;-78
2022/04/18 12:35:43;;;;;;;7.70;4.95;;;18.90;62.50;;;;;;5078491;28;20097;-75
2022/04/18 12:38:12;;;;;;;5.55;4.45;;;19.00;62.50;;;;;;5061037;28;20128;-77
2022/04/18 12:40:45;;;;;;;6.63;5.47;;;18.90;59.90;;;;;;5078574;28;20037;-76
2022/04/18 12:43:13;;;;;;;7.15;5.20;;;19.00;58.90;;;;;;5078441;28;20058;-76
2022/04/18 12:45:58;;;;;;;8.38;5.45;;;19.10;60.80;;;;;;5074387;28;20086;-77
2022/04/18 12:48:25;;;;;;;5.70;5.03;;;19.20;59.70;;;;;;5047245;28;20052;-78
2022/04/18 12:50:52;;;;;;;6.18;5.47;;;19.50;58.90;;;;;;5060384;28;20443;-78
2022/04/18 12:53:19;;;;;;;6.43;5.65;;;19.80;60.10;;;;;;5060582;28;20047;-76
2022/04/18 12:55:45;;;;;;;6.55;5.80;;;20.10;60.80;;;;;;5058131;28;20137;-78
2022/04/18 12:58:21;;;;;;;6.22;5.38;;;20.30;59.80;;;;;;5040698;28;20049;-80
2022/04/18 13:00:50;;;;;;;6.35;5.55;;;20.70;60.80;;;;;;5040523;28;20131;-78
2022/04/18 13:03:17;;;;;;;6.72;5.78;;;21.20;59.90;;;;;;5040570;28;20041;-74
2022/04/18 13:05:48;;;;;;;7.10;4.95;;;21.00;58.50;;;;;;5046159;28;20048;-76
2022/04/18 13:08:16;;;;;;;6.50;5.50;;;21.50;59.40;;;;;;5077884;28;20052;-77
2022/04/18 13:10:43;;;;;;;6.32;5.72;;;22.20;61.40;;;;;;5059946;28;20043;-75